Aérodrome :
LOGIN :

S'inscrire | Disclaimer

   EN    FR    IT 

 










Légende :    VFR   VFR Marginal   IFR   IFR Intensif   IFR Très Intensif
Visi : 
Plafond : 
>= 8 km
>= 3000ft
5 à 8 km
1000 à 3000 ft
1500m à 5 km
500 à 1000 ft
800 à 1500m
200 à 500 ft
< 800m
< 200 ft
Symboles :   Orages  Brouillard  Fortes neiges  Fortes précipitations  Vent > 20 kt
SIGMETs :   Divers  Orages  Givrage  Turbulence  Onde Orograph.  Cendres Volcan.






- Altitude de l'aérodrome : 425 ft
- Code IATA : DTM


EDLW - Dortmund

DERNIER METAR :
  • 032020Z 15007KT 110V210 4500 -RASN BR BKN020 OVC024 M00/M03 Q1017

METARs EXPIRÉS :
  • 031950Z 15009KT 6000 -RASN OVC025 M00/M03 Q1018
  • 031920Z 17009KT CAVOK 00/M04 Q1018
  • 031850Z 17009KT CAVOK 00/M05 Q1018
  • 031820Z 17012KT CAVOK 00/M04 Q1019
  • 031750Z 16009KT CAVOK 00/M04 Q1019
  • 031720Z 16009KT CAVOK 00/M04 Q1019
  • 031650Z 15009KT 130V190 CAVOK M00/M04 Q1019
  • 031620Z 16011KT CAVOK M00/M04 Q1019
  • 031550Z 16008KT 140V200 CAVOK 00/M03 Q1020

TAF TAF EDLW
Valide du 03 à 18h jusqu'au 04 à 18h UTC


031700Z 0318/0418 15007KT 9999 SCT030
BECMG 0318/0320 16012KT
TEMPO 0320/0401 4000 -SN BKN012
PROB30
TEMPO 0320/0324 1400 SN BKN008
PROB30
TEMPO 0410/0414 4000 -SNRA



MET'MAP, la Météo Aéronautique d'un coup d'oeil ! - Copyright ORBIFLY Décembre 2007 - Disclaimer

ORBIFLY MET'MAP TEAM :

Programmation & Développement : Alexandra Zaïnal
Sur une idée originale de : Baudouin d'Aumeries
Soutien technique & logistique : Manuel Goepfert
Assistance : Marc-Olivier Méhu




SOURCES & CREDITS :

   NOAA